sensor_id;sensor_type;location;lat;lon;timestamp;P1;durP1;ratioP1;P2;durP2;ratioP2
30384;SDS011;17181;51.002;4.096;2023-06-04T01:48:02;2.03;;;1.03;;
30384;SDS011;17181;51.002;4.096;2023-06-04T01:50:29;1.63;;;1.20;;
30384;SDS011;17181;51.002;4.096;2023-06-04T01:52:56;7.33;;;1.50;;
30384;SDS011;17181;51.002;4.096;2023-06-04T01:55:22;1.10;;;1.10;;
30384;SDS011;17181;51.002;4.096;2023-06-04T01:57:50;1.13;;;1.03;;
30384;SDS011;17181;51.002;4.096;2023-06-04T02:59:09;5.50;;;1.77;;
30384;SDS011;17181;51.002;4.096;2023-06-04T03:01:35;2.77;;;1.80;;
30384;SDS011;17181;51.002;4.096;2023-06-04T03:04:01;4.53;;;2.20;;
30384;SDS011;17181;51.002;4.096;2023-06-04T03:06:35;1.70;;;1.60;;
30384;SDS011;17181;51.002;4.096;2023-06-04T03:09:04;1.17;;;1.17;;
30384;SDS011;17181;51.002;4.096;2023-06-04T03:11:30;1.50;;;1.40;;
30384;SDS011;17181;51.002;4.096;2023-06-04T03:13:56;2.53;;;1.47;;
30384;SDS011;17181;51.002;4.096;2023-06-04T03:16:22;1.73;;;1.47;;
30384;SDS011;17181;51.002;4.096;2023-06-04T03:18:49;2.03;;;1.27;;
30384;SDS011;17181;51.002;4.096;2023-06-04T03:21:15;1.40;;;1.30;;
30384;SDS011;17181;51.002;4.096;2023-06-04T03:23:43;6.33;;;1.70;;
30384;SDS011;17181;51.002;4.096;2023-06-04T03:26:09;9.27;;;2.03;;
30384;SDS011;17181;51.002;4.096;2023-06-04T03:28:38;2.53;;;1.50;;
30384;SDS011;17181;51.002;4.096;2023-06-04T03:31:05;2.10;;;1.57;;
30384;SDS011;17181;51.002;4.096;2023-06-04T03:33:31;1.63;;;1.37;;
30384;SDS011;17181;51.002;4.096;2023-06-04T03:36:17;2.80;;;1.80;;
30384;SDS011;17181;51.002;4.096;2023-06-04T03:38:44;1.80;;;1.70;;
30384;SDS011;17181;51.002;4.096;2023-06-04T03:41:11;6.17;;;1.60;;
30384;SDS011;17181;51.002;4.096;2023-06-04T03:43:37;6.70;;;1.87;;
30384;SDS011;17181;51.002;4.096;2023-06-04T03:46:05;3.40;;;1.60;;
30384;SDS011;17181;51.002;4.096;2023-06-04T03:48:31;11.20;;;2.03;;
30384;SDS011;17181;51.002;4.096;2023-06-04T03:50:57;3.93;;;1.70;;
30384;SDS011;17181;51.002;4.096;2023-06-04T03:53:23;4.00;;;1.43;;
30384;SDS011;17181;51.002;4.096;2023-06-04T03:55:49;1.67;;;1.20;;
30384;SDS011;17181;51.002;4.096;2023-06-04T03:58:16;3.23;;;1.97;;
30384;SDS011;17181;51.002;4.096;2023-06-04T04:00:46;3.50;;;1.97;;
30384;SDS011;17181;51.002;4.096;2023-06-04T04:03:12;1.70;;;1.30;;
30384;SDS011;17181;51.002;4.096;2023-06-04T04:05:39;3.30;;;2.00;;
30384;SDS011;17181;51.002;4.096;2023-06-04T04:08:05;2.47;;;1.37;;
30384;SDS011;17181;51.002;4.096;2023-06-04T05:50:50;1.40;;;1.30;;
30384;SDS011;17181;51.002;4.096;2023-06-04T05:53:19;2.33;;;1.13;;
30384;SDS011;17181;51.002;4.096;2023-06-04T05:55:47;4.33;;;1.20;;
30384;SDS011;17181;51.002;4.096;2023-06-04T05:58:13;4.83;;;1.93;;
30384;SDS011;17181;51.002;4.096;2023-06-04T06:00:39;2.10;;;1.60;;
30384;SDS011;17181;51.002;4.096;2023-06-04T06:03:06;2.13;;;1.40;;
30384;SDS011;17181;51.002;4.096;2023-06-04T06:05:48;1.70;;;1.60;;
30384;SDS011;17181;51.002;4.096;2023-06-04T06:08:16;3.30;;;1.60;;
30384;SDS011;17181;51.002;4.096;2023-06-04T06:10:42;2.43;;;1.60;;
30384;SDS011;17181;51.002;4.096;2023-06-04T06:13:08;1.50;;;1.37;;
30384;SDS011;17181;51.002;4.096;2023-06-04T06:15:34;1.40;;;1.30;;
30384;SDS011;17181;51.002;4.096;2023-06-04T06:18:00;1.40;;;1.30;;
30384;SDS011;17181;51.002;4.096;2023-06-04T06:20:26;6.47;;;1.43;;
30384;SDS011;17181;51.002;4.096;2023-06-04T06:22:52;2.67;;;1.37;;
30384;SDS011;17181;51.002;4.096;2023-06-04T06:25:20;1.30;;;1.20;;
30384;SDS011;17181;51.002;4.096;2023-06-04T06:28:08;4.87;;;1.67;;
30384;SDS011;17181;51.002;4.096;2023-06-04T06:30:35;2.30;;;1.60;;
30384;SDS011;17181;51.002;4.096;2023-06-04T06:33:01;2.17;;;1.47;;
30384;SDS011;17181;51.002;4.096;2023-06-04T06:35:27;5.30;;;1.33;;
30384;SDS011;17181;51.002;4.096;2023-06-04T06:37:52;1.90;;;1.37;;
30384;SDS011;17181;51.002;4.096;2023-06-04T06:40:19;1.97;;;1.33;;
30384;SDS011;17181;51.002;4.096;2023-06-04T06:42:51;1.17;;;1.17;;
30384;SDS011;17181;51.002;4.096;2023-06-04T06:45:17;2.90;;;1.43;;
30384;SDS011;17181;51.002;4.096;2023-06-04T06:47:45;0.97;;;0.93;;
30384;SDS011;17181;51.002;4.096;2023-06-04T06:50:14;5.77;;;1.87;;
30384;SDS011;17181;51.002;4.096;2023-06-04T06:52:40;1.60;;;1.13;;
30384;SDS011;17181;51.002;4.096;2023-06-04T06:55:06;4.93;;;1.40;;
30384;SDS011;17181;51.002;4.096;2023-06-04T06:57:32;2.57;;;1.60;;
30384;SDS011;17181;51.002;4.096;2023-06-04T06:59:58;1.90;;;1.60;;
30384;SDS011;17181;51.002;4.096;2023-06-04T07:02:24;4.53;;;1.60;;
30384;SDS011;17181;51.002;4.096;2023-06-04T07:04:50;4.60;;;1.77;;
30384;SDS011;17181;51.002;4.096;2023-06-04T07:07:16;2.53;;;1.93;;
30384;SDS011;17181;51.002;4.096;2023-06-04T07:09:42;1.63;;;1.53;;
30384;SDS011;17181;51.002;4.096;2023-06-04T07:12:08;2.90;;;1.70;;
30384;SDS011;17181;51.002;4.096;2023-06-04T07:14:34;1.10;;;1.10;;
30384;SDS011;17181;51.002;4.096;2023-06-04T07:17:00;3.70;;;1.50;;
30384;SDS011;17181;51.002;4.096;2023-06-04T07:19:26;1.30;;;1.20;;
30384;SDS011;17181;51.002;4.096;2023-06-04T07:21:53;1.87;;;1.40;;
30384;SDS011;17181;51.002;4.096;2023-06-04T07:24:19;1.37;;;1.00;;
30384;SDS011;17181;51.002;4.096;2023-06-04T07:26:45;1.20;;;1.10;;
30384;SDS011;17181;51.002;4.096;2023-06-04T07:29:11;2.73;;;1.63;;
30384;SDS011;17181;51.002;4.096;2023-06-04T07:31:37;1.43;;;1.10;;
30384;SDS011;17181;51.002;4.096;2023-06-04T11:25:29;0.50;;;0.43;;
30384;SDS011;17181;51.002;4.096;2023-06-04T11:27:59;0.93;;;0.67;;
30384;SDS011;17181;51.002;4.096;2023-06-04T11:30:27;0.87;;;0.80;;
30384;SDS011;17181;51.002;4.096;2023-06-04T11:33:01;1.37;;;0.87;;
30384;SDS011;17181;51.002;4.096;2023-06-04T11:35:40;6.23;;;1.13;;
30384;SDS011;17181;51.002;4.096;2023-06-04T11:38:08;3.40;;;0.90;;
30384;SDS011;17181;51.002;4.096;2023-06-04T11:40:36;0.70;;;0.70;;
30384;SDS011;17181;51.002;4.096;2023-06-04T11:43:02;4.23;;;1.00;;
30384;SDS011;17181;51.002;4.096;2023-06-04T11:45:43;1.03;;;0.87;;
30384;SDS011;17181;51.002;4.096;2023-06-04T11:50:53;0.67;;;0.67;;
30384;SDS011;17181;51.002;4.096;2023-06-04T11:53:19;2.00;;;0.83;;
30384;SDS011;17181;51.002;4.096;2023-06-04T11:55:45;2.17;;;0.73;;
30384;SDS011;17181;51.002;4.096;2023-06-04T11:58:11;1.50;;;1.20;;
30384;SDS011;17181;51.002;4.096;2023-06-04T12:00:41;8.87;;;0.93;;
30384;SDS011;17181;51.002;4.096;2023-06-04T12:03:06;1.67;;;0.90;;
30384;SDS011;17181;51.002;4.096;2023-06-04T12:05:33;0.80;;;0.80;;
30384;SDS011;17181;51.002;4.096;2023-06-04T12:08:09;0.80;;;0.80;;
30384;SDS011;17181;51.002;4.096;2023-06-04T12:10:43;1.40;;;0.33;;
30384;SDS011;17181;51.002;4.096;2023-06-04T12:13:16;1.00;;;0.60;;
30384;SDS011;17181;51.002;4.096;2023-06-04T12:21:28;1.73;;;1.00;;
30384;SDS011;17181;51.002;4.096;2023-06-04T12:32:50;0.80;;;0.80;;
30384;SDS011;17181;51.002;4.096;2023-06-04T12:35:16;2.00;;;0.70;;
30384;SDS011;17181;51.002;4.096;2023-06-04T12:37:45;1.52;;;1.10;;
30384;SDS011;17181;51.002;4.096;2023-06-04T12:40:39;2.38;;;1.08;;
30384;SDS011;17181;51.002;4.096;2023-06-04T12:43:05;2.10;;;1.10;;
30384;SDS011;17181;51.002;4.096;2023-06-04T12:59:24;1.00;;;0.90;;
30384;SDS011;17181;51.002;4.096;2023-06-04T13:01:51;0.63;;;0.63;;
30384;SDS011;17181;51.002;4.096;2023-06-04T13:04:20;0.88;;;0.80;;
30384;SDS011;17181;51.002;4.096;2023-06-04T13:28:56;1.70;;;1.00;;
30384;SDS011;17181;51.002;4.096;2023-06-04T13:31:23;1.88;;;1.33;;
30384;SDS011;17181;51.002;4.096;2023-06-04T13:33:58;2.40;;;1.48;;
30384;SDS011;17181;51.002;4.096;2023-06-04T13:36:27;1.73;;;1.10;;
30384;SDS011;17181;51.002;4.096;2023-06-04T15:58:30;1.65;;;1.38;;
30384;SDS011;17181;51.002;4.096;2023-06-04T16:01:02;1.27;;;1.13;;
30384;SDS011;17181;51.002;4.096;2023-06-04T16:03:28;2.95;;;1.20;;
30384;SDS011;17181;51.002;4.096;2023-06-04T16:05:54;1.88;;;1.00;;
30384;SDS011;17181;51.002;4.096;2023-06-04T16:08:22;3.05;;;1.50;;
30384;SDS011;17181;51.002;4.096;2023-06-04T16:11:43;15.77;;;1.75;;
30384;SDS011;17181;51.002;4.096;2023-06-04T16:14:08;2.95;;;1.35;;
30384;SDS011;17181;51.002;4.096;2023-06-04T16:16:34;1.50;;;1.33;;
30384;SDS011;17181;51.002;4.096;2023-06-04T16:19:00;2.65;;;1.40;;
30384;SDS011;17181;51.002;4.096;2023-06-04T16:21:29;1.35;;;1.25;;
30384;SDS011;17181;51.002;4.096;2023-06-04T16:23:57;1.23;;;0.93;;
30384;SDS011;17181;51.002;4.096;2023-06-04T16:26:25;1.88;;;1.30;;
30384;SDS011;17181;51.002;4.096;2023-06-04T16:28:51;2.00;;;1.30;;
30384;SDS011;17181;51.002;4.096;2023-06-04T16:31:17;2.92;;;1.02;;
30384;SDS011;17181;51.002;4.096;2023-06-04T16:33:44;1.25;;;1.15;;
30384;SDS011;17181;51.002;4.096;2023-06-04T16:36:11;1.77;;;1.25;;
30384;SDS011;17181;51.002;4.096;2023-06-04T18:43:37;8.97;;;1.77;;
30384;SDS011;17181;51.002;4.096;2023-06-04T18:46:04;3.53;;;1.30;;
30384;SDS011;17181;51.002;4.096;2023-06-04T18:48:30;1.37;;;1.27;;
30384;SDS011;17181;51.002;4.096;2023-06-04T18:50:56;2.50;;;1.50;;
30384;SDS011;17181;51.002;4.096;2023-06-04T18:53:22;4.57;;;1.50;;
30384;SDS011;17181;51.002;4.096;2023-06-04T18:55:47;6.53;;;2.13;;
30384;SDS011;17181;51.002;4.096;2023-06-04T18:58:13;11.00;;;1.23;;
30384;SDS011;17181;51.002;4.096;2023-06-04T19:00:39;11.43;;;1.73;;
30384;SDS011;17181;51.002;4.096;2023-06-04T19:03:05;4.10;;;1.40;;
30384;SDS011;17181;51.002;4.096;2023-06-04T19:05:31;4.57;;;1.50;;
30384;SDS011;17181;51.002;4.096;2023-06-04T19:07:57;2.23;;;1.43;;
30384;SDS011;17181;51.002;4.096;2023-06-04T19:10:22;6.33;;;1.43;;
30384;SDS011;17181;51.002;4.096;2023-06-04T19:12:48;9.40;;;1.83;;
30384;SDS011;17181;51.002;4.096;2023-06-04T19:15:14;2.87;;;1.63;;
30384;SDS011;17181;51.002;4.096;2023-06-04T19:17:42;3.60;;;1.80;;
30384;SDS011;17181;51.002;4.096;2023-06-04T19:20:08;1.33;;;1.23;;
30384;SDS011;17181;51.002;4.096;2023-06-04T19:22:34;7.80;;;1.80;;
30384;SDS011;17181;51.002;4.096;2023-06-04T19:25:00;4.13;;;2.13;;
30384;SDS011;17181;51.002;4.096;2023-06-04T19:27:26;7.70;;;2.03;;
30384;SDS011;17181;51.002;4.096;2023-06-04T19:29:52;17.67;;;1.90;;
30384;SDS011;17181;51.002;4.096;2023-06-04T19:32:19;3.00;;;1.73;;
30384;SDS011;17181;51.002;4.096;2023-06-04T19:34:45;3.57;;;1.47;;
30384;SDS011;17181;51.002;4.096;2023-06-04T19:37:14;1.30;;;1.20;;
30384;SDS011;17181;51.002;4.096;2023-06-04T19:39:40;1.90;;;1.50;;
30384;SDS011;17181;51.002;4.096;2023-06-04T19:42:06;9.43;;;1.90;;
30384;SDS011;17181;51.002;4.096;2023-06-04T19:44:33;2.40;;;1.53;;
30384;SDS011;17181;51.002;4.096;2023-06-04T19:46:59;4.43;;;1.60;;
30384;SDS011;17181;51.002;4.096;2023-06-04T19:49:24;5.20;;;1.80;;
30384;SDS011;17181;51.002;4.096;2023-06-04T19:51:50;2.67;;;1.50;;
30384;SDS011;17181;51.002;4.096;2023-06-04T19:54:16;4.37;;;1.40;;
30384;SDS011;17181;51.002;4.096;2023-06-04T19:56:42;6.03;;;1.90;;
30384;SDS011;17181;51.002;4.096;2023-06-04T19:59:08;9.20;;;1.33;;
30384;SDS011;17181;51.002;4.096;2023-06-04T20:01:33;4.77;;;2.10;;
30384;SDS011;17181;51.002;4.096;2023-06-04T20:04:00;3.03;;;1.57;;
30384;SDS011;17181;51.002;4.096;2023-06-04T20:06:26;5.57;;;1.97;;
30384;SDS011;17181;51.002;4.096;2023-06-04T20:08:52;14.10;;;1.87;;
30384;SDS011;17181;51.002;4.096;2023-06-04T20:11:18;6.73;;;1.90;;
30384;SDS011;17181;51.002;4.096;2023-06-04T20:13:44;3.87;;;1.73;;
30384;SDS011;17181;51.002;4.096;2023-06-04T20:16:09;4.73;;;1.80;;
30384;SDS011;17181;51.002;4.096;2023-06-04T20:18:35;1.73;;;1.60;;
30384;SDS011;17181;51.002;4.096;2023-06-04T20:21:01;2.83;;;1.67;;
30384;SDS011;17181;51.002;4.096;2023-06-04T20:23:27;4.87;;;1.77;;
30384;SDS011;17181;51.002;4.096;2023-06-04T20:25:53;6.03;;;1.87;;
30384;SDS011;17181;51.002;4.096;2023-06-04T20:28:18;2.47;;;1.87;;
30384;SDS011;17181;51.002;4.096;2023-06-04T20:30:45;5.93;;;2.00;;
30384;SDS011;17181;51.002;4.096;2023-06-04T20:33:11;5.60;;;1.70;;
30384;SDS011;17181;51.002;4.096;2023-06-04T20:35:40;5.47;;;1.63;;
30384;SDS011;17181;51.002;4.096;2023-06-04T20:38:06;3.07;;;1.70;;
